Time;durP1;ratioP1;P1;durP2;ratioP2;P2;SDS_P1;SDS_P2;PMS_P1;PMS_P2;Temp;Humidity;BMP_temperature;BMP_pressure;BME280_temperature;BME280_humidity;BME280_pressure;Samples;Min_cycle;Max_cycle;Signal;HPM_P1;HPM_P2
2023/10/18 00:04:13;;;;;;;56.10;30.60;;;;;;;1.73;94.59;99391.77;272351;1275;22243;-81
2023/10/18 00:10:21;;;;;;;53.90;30.40;;;;;;;1.65;94.40;99385.91;271738;1272;22497;-83
2023/10/18 00:16:41;;;;;;;;;;;;;;;;;;;;;
2023/10/18 00:23:10;;;;;;;58.60;30.20;;;;;;;1.58;95.36;99385.47;271220;1272;22585;-81
2023/10/18 00:29:14;;;;;;;56.60;30.70;;;;;;;1.55;95.21;99371.73;270056;1272;22680;-81
2023/10/18 00:35:19;;;;;;;56.90;27.80;;;;;;;1.52;95.12;99368.02;269786;1272;22555;-81
2023/10/18 00:42:46;;;;;;;53.00;28.90;;;;;;;1.48;95.61;99361.21;271340;1272;22549;-81
2023/10/18 00:48:39;;;;;;;54.50;29.40;;;;;;;1.36;95.20;99353.09;272469;1272;23036;-80
2023/10/18 00:54:44;;;;;;;55.80;30.60;;;;;;;1.22;94.82;99348.69;272302;1272;22732;-80
2023/10/18 01:01:00;;;;;;;;;;;;;;;;;;;;;
2023/10/18 01:07:31;;;;;;;55.60;28.80;;;;;;;1.01;95.34;99341.12;271665;1272;22569;-81
2023/10/18 01:13:43;;;;;;;49.60;28.30;;;;;;;0.93;95.93;99331.18;269641;1273;22562;-79
2023/10/18 01:19:49;;;;;;;56.00;29.30;;;;;;;0.90;95.85;99322.95;271994;1272;22359;-80
2023/10/18 01:25:51;;;;;;;52.80;28.40;;;;;;;0.85;96.01;99324.04;271076;1274;24240;-80
2023/10/18 01:31:54;;;;;;;59.70;30.30;;;;;;;0.78;96.18;99322.56;270994;1272;22568;-80
2023/10/18 01:38:13;;;;;;;57.70;29.90;;;;;;;0.74;96.14;99318.08;271897;1257;25614;-80
2023/10/18 01:45:00;;;;;;;;;;;;;;;;;;;;;
2023/10/18 01:51:27;;;;;;;58.80;29.90;;;;;;;0.66;96.14;99320.68;272120;1272;22238;-79
2023/10/18 01:57:44;;;;;;;57.30;30.00;;;;;;;0.63;96.30;99323.54;272918;1271;22334;-79
2023/10/18 02:04:23;;;;;;;40.70;21.90;;;;;;;0.58;95.99;99324.06;272438;1272;22195;-79
2023/10/18 02:10:52;;;;;;;50.30;28.60;;;;;;;0.54;96.10;99326.27;272443;1273;22824;-79
2023/10/18 02:17:09;;;;;;;55.90;29.70;;;;;;;0.51;96.15;99327.73;271872;1273;23683;-79
2023/10/18 02:23:50;;;;;;;53.50;28.50;;;;;;;0.49;96.54;99332.90;270959;1272;22556;-79
2023/10/18 02:30:21;;;;;;;;;;;;;;;;;;;;;
2023/10/18 02:37:08;;;;;;;50.10;28.90;;;;;;;0.50;96.75;99326.60;271224;1272;23443;-79
2023/10/18 02:43:23;;;;;;;55.30;29.00;;;;;;;0.45;96.54;99329.57;270783;1272;22440;-79
2023/10/18 02:49:29;;;;;;;54.70;29.90;;;;;;;0.33;96.58;99330.36;271147;1272;22221;-78
2023/10/18 02:55:38;;;;;;;53.00;27.90;;;;;;;0.32;96.91;99323.86;272144;1273;23116;-81
2023/10/18 03:01:40;;;;;;;52.40;26.80;;;;;;;0.26;96.87;99325.06;271384;1274;23133;-79
2023/10/18 03:08:05;;;;;;;48.70;26.90;;;;;;;0.20;97.35;99327.55;272291;1273;22333;-79
2023/10/18 03:14:39;;;;;;;52.80;28.10;;;;;;;0.20;97.66;99325.51;272507;1272;22237;-79
2023/10/18 03:20:45;;;;;;;53.10;28.00;;;;;;;0.22;97.74;99327.14;271597;1272;23202;-81
2023/10/18 03:26:47;;;;;;;52.00;25.70;;;;;;;0.16;97.38;99322.25;271595;1269;22660;-79
2023/10/18 03:33:03;;;;;;;50.90;26.30;;;;;;;0.11;97.36;99313.84;270983;1272;24595;-79
2023/10/18 03:39:15;;;;;;;46.30;25.70;;;;;;;0.09;97.59;99307.52;270178;1274;22676;-79
2023/10/18 03:58:22;;;;;;;50.40;26.30;;;;;;;0.08;97.58;99288.27;272669;1273;22279;-79
2023/10/18 04:04:25;;;;;;;47.60;26.40;;;;;;;0.05;97.34;99277.57;272553;1271;22940;-79
2023/10/18 04:10:31;;;;;;;49.60;27.30;;;;;;;-0.10;97.15;99267.77;270918;1275;23354;-78
2023/10/18 04:16:35;;;;;;;50.20;27.00;;;;;;;-0.18;97.34;99267.67;271042;1273;22611;-78
2023/10/18 04:22:37;;;;;;;48.90;26.90;;;;;;;-0.20;97.78;99263.67;271212;1273;22327;-78
2023/10/18 04:29:10;;;;;;;56.70;28.10;;;;;;;-0.20;97.82;99270.23;271777;1272;22558;-78
2023/10/18 04:35:25;;;;;;;53.40;26.60;;;;;;;-0.24;97.82;99280.54;272648;1272;23055;-79
2023/10/18 04:41:49;;;;;;;49.70;26.50;;;;;;;-0.36;97.47;99282.86;269553;1272;22224;-79
2023/10/18 04:48:16;;;;;;;;;;;;;;;;;;;;;
2023/10/18 04:54:38;;;;;;;48.60;26.10;;;;;;;-0.37;97.74;99287.02;269925;1272;23445;-79
2023/10/18 05:00:56;;;;;;;54.10;28.50;;;;;;;-0.43;97.49;99278.40;271804;1273;22311;-79
2023/10/18 05:07:03;;;;;;;46.80;24.60;;;;;;;-0.45;97.84;99283.27;272443;1272;22183;-79
2023/10/18 05:13:19;;;;;;;51.30;26.70;;;;;;;-0.47;97.92;99286.83;272133;1273;22327;-79
2023/10/18 05:19:55;;;;;;;53.90;25.80;;;;;;;-0.53;97.61;99288.32;272138;1273;22234;-78
2023/10/18 05:26:18;;;;;;;;;;;;;;;-0.59;97.68;99289.66;271261;1272;25586;-79
2023/10/18 05:32:37;;;;;;;46.60;25.30;;;;;;;-0.57;97.94;99288.13;272129;1273;22232;-79
2023/10/18 05:39:27;;;;;;;51.00;27.20;;;;;;;-0.55;98.03;99293.31;272326;1273;22323;-81
2023/10/18 05:46:07;;;;;;;57.10;32.20;;;;;;;-0.43;98.84;99291.69;272475;1272;22323;-79
2023/10/18 05:52:24;;;;;;;60.00;33.50;;;;;;;0.10;99.95;99289.94;271885;1272;22291;-78
2023/10/18 05:59:25;;;;;;;;;;;;;;;;;;;;;
2023/10/18 06:05:14;;;;;;;66.50;39.30;;;;;;;1.04;100.00;99284.88;272387;1272;22306;-80
2023/10/18 06:11:27;;;;;;;62.30;34.40;;;;;;;1.54;99.96;99291.19;272604;1273;22187;-79
2023/10/18 06:18:00;;;;;;;58.40;32.40;;;;;;;1.92;99.04;99295.33;272197;1272;23070;-79
2023/10/18 06:24:10;;;;;;;60.60;30.50;;;;;;;2.07;98.69;99293.61;272490;1274;22203;-79
2023/10/18 06:30:25;;;;;;;53.60;30.70;;;;;;;2.15;98.35;99291.98;272847;1261;23477;-83
2023/10/18 06:36:32;;;;;;;53.70;29.20;;;;;;;2.20;98.19;99291.41;271213;1272;22446;-80
2023/10/18 06:42:51;;;;;;;59.20;27.80;;;;;;;2.28;97.96;99284.33;271141;1272;24161;-82
2023/10/18 06:49:02;;;;;;;54.40;27.90;;;;;;;2.34;97.76;99286.74;272191;1272;22380;-81
2023/10/18 06:55:44;;;;;;;59.60;30.80;;;;;;;2.36;97.71;99282.80;271887;1272;22325;-84
2023/10/18 07:01:57;;;;;;;52.10;28.60;;;;;;;2.44;98.04;99281.70;272418;1267;22322;-81
2023/10/18 07:08:18;;;;;;;59.80;29.60;;;;;;;2.60;98.27;99277.34;272107;1272;22437;-81
2023/10/18 07:15:33;;;;;;;;;;;;;;;;;;;;;
2023/10/18 07:21:34;;;;;;;49.70;27.70;;;;;;;3.38;99.33;99268.41;271915;1273;22733;-82
2023/10/18 07:27:37;;;;;;;50.80;28.40;;;;;;;3.95;99.53;99273.02;272043;1273;26300;-83
2023/10/18 07:34:07;;;;;;;;;;;;;;;;;;;;;
2023/10/18 07:40:42;;;;;;;50.80;27.00;;;;;;;5.00;98.90;99271.75;272008;1273;22275;-84
2023/10/18 07:47:17;;;;;;;48.70;26.80;;;;;;;5.44;98.32;99268.62;272091;1264;23128;-84
2023/10/18 07:53:55;;;;;;;51.10;26.60;;;;;;;5.81;97.81;99265.37;271293;1273;23600;-84
2023/10/18 08:00:33;;;;;;;;;;;;;;;;;;;;;
2023/10/18 08:06:52;;;;;;;35.90;21.70;;;;;;;6.54;97.30;99247.79;270205;1273;22536;-86
2023/10/18 08:13:16;;;;;;;35.10;21.30;;;;;;;7.19;97.85;99239.75;269537;1273;22530;-85
2023/10/18 08:19:43;;;;;;;32.60;19.30;;;;;;;7.98;96.89;99230.12;272739;1273;22211;-85
2023/10/18 08:26:25;;;;;;;30.70;17.10;;;;;;;9.03;96.90;99232.45;272470;1272;22193;-84
2023/10/18 08:32:52;;;;;;;19.20;13.60;;;;;;;10.33;95.31;99225.65;273038;1273;22289;-82
2023/10/18 08:39:25;;;;;;;15.10;9.50;;;;;;;11.33;93.37;99223.00;272950;1280;22203;-83
2023/10/18 08:46:29;;;;;;;12.50;7.90;;;;;;;12.15;90.85;99217.73;272392;1273;22321;-83
2023/10/18 08:53:05;;;;;;;;;;;;;;;;;;;;;
2023/10/18 08:59:58;;;;;;;15.40;9.90;;;;;;;13.90;86.22;99202.73;272817;1276;22168;-83
2023/10/18 09:06:32;;;;;;;18.90;10.10;;;;;;;14.47;84.21;99195.99;272887;1275;22293;-84
2023/10/18 09:19:07;;;;;;;16.30;10.50;;;;;;;15.50;82.33;99185.17;272270;1272;22870;-84
2023/10/18 09:25:48;;;;;;;21.30;10.80;;;;;;;15.69;80.11;99187.75;272456;1272;22311;-84
2023/10/18 09:32:36;;;;;;;22.60;13.80;;;;;;;16.14;79.87;99183.63;271644;1272;22361;-85
2023/10/18 09:38:41;;;;;;;26.30;13.60;;;;;;;16.42;77.79;99180.88;272690;1275;22534;-85
2023/10/18 09:45:14;;;;;;;24.90;12.90;;;;;;;16.60;74.95;99181.10;271468;1272;22430;-85
2023/10/18 09:52:11;;;;;;;19.20;9.60;;;;;;;17.00;73.92;99178.87;272493;1273;23095;-85
2023/10/18 09:58:41;;;;;;;19.30;10.30;;;;;;;17.12;72.85;99170.73;271270;1272;22348;-84
2023/10/18 10:04:44;;;;;;;12.30;6.80;;;;;;;17.46;70.19;99160.89;271818;1272;22566;-84
2023/10/18 10:10:52;;;;;;;10.70;6.20;;;;;;;17.76;68.65;99158.73;272037;1273;22240;-84
2023/10/18 10:17:18;;;;;;;11.00;6.20;;;;;;;17.98;67.82;99151.90;271748;1272;22212;-85
2023/10/18 10:23:20;;;;;;;8.30;4.80;;;;;;;17.89;66.40;99153.00;272274;1272;22210;-84
2023/10/18 10:35:37;;;;;;;8.10;4.40;;;;;;;17.23;63.05;99139.53;269862;1272;22556;-84
2023/10/18 10:42:19;;;;;;;5.80;3.40;;;;;;;16.60;61.99;99139.01;270918;1272;22725;-83
2023/10/18 10:49:58;;;;;;;5.40;3.10;;;;;;;15.65;61.31;99134.92;272547;1273;22307;-86
2023/10/18 10:56:48;;;;;;;7.20;3.60;;;;;;;14.77;60.78;99129.71;271227;1281;22270;-85
2023/10/18 11:03:43;;;;;;;8.20;4.40;;;;;;;14.59;60.95;99127.02;271603;1274;22371;-86
2023/10/18 11:10:14;;;;;;;9.90;4.20;;;;;;;14.34;60.45;99112.77;270032;1274;22593;-85
2023/10/18 11:16:22;;;;;;;8.60;4.80;;;;;;;14.18;59.98;99104.52;271821;1273;22471;-84
2023/10/18 11:22:44;;;;;;;7.90;4.60;;;;;;;14.03;59.84;99098.15;272305;1276;22283;-83
2023/10/18 11:29:07;;;;;;;11.50;5.50;;;;;;;14.00;60.10;99086.74;272579;1278;23067;-84
2023/10/18 11:35:25;;;;;;;11.10;5.70;;;;;;;13.83;59.52;99081.66;271129;1273;22195;-84
2023/10/18 11:41:44;;;;;;;9.80;5.10;;;;;;;13.52;59.37;99074.58;271012;1267;22531;-85
2023/10/18 11:47:57;;;;;;;11.50;5.60;;;;;;;13.30;59.16;99061.67;270508;1272;22536;-85
2023/10/18 11:54:41;;;;;;;;;;;;;;;;;;;;;
2023/10/18 12:01:16;;;;;;;7.90;4.80;;;;;;;13.08;59.08;99041.69;272935;1270;22239;-81
2023/10/18 12:07:44;;;;;;;12.70;6.00;;;;;;;12.96;58.01;99033.09;273085;1279;22193;-83
2023/10/18 12:14:23;;;;;;;10.10;5.20;;;;;;;12.77;58.10;99020.64;270734;1272;22566;-85
2023/10/18 12:21:05;;;;;;;7.60;4.10;;;;;;;12.65;58.64;99005.85;270251;1272;22537;-83
2023/10/18 12:27:50;;;;;;;;;;;;;;;;;;;;;
2023/10/18 12:34:31;;;;;;;12.70;6.70;;;;;;;12.57;59.47;98988.73;272829;1275;22553;-84
2023/10/18 12:47:37;;;;;;;11.40;7.00;;;;;;;12.21;58.53;98966.16;272790;1272;22254;-84
2023/10/18 12:54:05;;;;;;;9.60;5.70;;;;;;;12.18;58.79;98961.29;272535;1272;22194;-83
2023/10/18 13:00:54;;;;;;;11.80;5.90;;;;;;;12.25;58.97;98955.84;272768;1274;22180;-84
2023/10/18 13:06:53;;;;;;;9.70;5.30;;;;;;;12.20;59.01;98943.27;271627;1272;23378;-84
2023/10/18 13:13:23;;;;;;;10.50;6.10;;;;;;;12.23;59.00;98934.17;271371;1272;22332;-84
2023/10/18 13:19:30;;;;;;;10.80;4.60;;;;;;;12.21;58.77;98926.48;272377;1272;22156;-85
2023/10/18 13:25:52;;;;;;;10.00;5.80;;;;;;;12.22;59.79;98916.45;272540;1276;22192;-84
2023/10/18 13:32:19;;;;;;;10.60;5.00;;;;;;;12.17;59.54;98909.38;270879;1272;22295;-84
2023/10/18 13:38:29;;;;;;;7.90;4.30;;;;;;;12.09;59.51;98899.09;270753;1273;22579;-85
2023/10/18 13:44:57;;;;;;;12.10;5.60;;;;;;;12.05;59.41;98887.32;272138;1273;22961;-84
2023/10/18 13:51:19;;;;;;;9.10;4.60;;;;;;;12.00;59.53;98884.23;272300;1272;22211;-84
2023/10/18 13:58:07;;;;;;;17.00;5.20;;;;;;;11.96;59.50;98885.87;272298;1272;22398;-85
2023/10/18 14:04:34;;;;;;;;;;;;;;;;;;;;;
2023/10/18 14:11:17;;;;;;;;;;;;;;;;;;;;;
2023/10/18 14:17:39;;;;;;;8.20;5.30;;;;;;;11.73;59.61;98862.96;272080;1272;22780;-85
2023/10/18 14:24:44;;;;;;;9.30;4.70;;;;;;;11.72;59.98;98859.05;272396;1264;22223;-84
2023/10/18 14:31:28;;;;;;;;;;;;;;;;;;;;;
2023/10/18 14:37:32;;;;;;;9.20;4.60;;;;;;;11.68;60.86;98848.52;270381;1271;24231;-84
2023/10/18 14:43:36;;;;;;;7.60;4.10;;;;;;;11.58;60.94;98844.23;271050;1273;22232;-84
2023/10/18 14:50:10;;;;;;;6.20;4.30;;;;;;;11.52;61.35;98840.19;272783;1274;22173;-84
2023/10/18 14:56:19;;;;;;;9.50;4.50;;;;;;;11.42;61.49;98834.04;272184;1273;22478;-85
2023/10/18 15:02:39;;;;;;;9.50;3.70;;;;;;;11.31;62.17;98829.36;269561;1272;22332;-84
2023/10/18 15:08:57;;;;;;;7.90;3.40;;;;;;;11.17;62.39;98828.50;272866;1275;22246;-84
2023/10/18 15:15:21;;;;;;;9.20;3.80;;;;;;;11.05;62.98;98833.52;270260;1262;23261;-84
2023/10/18 15:21:28;;;;;;;8.60;3.80;;;;;;;10.90;63.45;98834.52;271910;1272;22201;-85
2023/10/18 15:28:08;;;;;;;9.20;4.10;;;;;;;10.71;64.36;98833.97;272901;1272;23597;-84
2023/10/18 15:34:13;;;;;;;12.00;4.40;;;;;;;10.50;65.15;98827.39;271297;1272;23726;-84
2023/10/18 15:40:46;;;;;;;;;;;;;;;;;;;;;
2023/10/18 15:47:06;;;;;;;9.20;5.30;;;;;;;9.73;67.13;98823.52;264708;1272;10002244;-83
2023/10/18 15:53:08;;;;;;;13.30;6.20;;;;;;;9.23;67.93;98823.52;272248;1272;113571;-83
2023/10/18 15:59:34;;;;;;;21.70;7.10;;;;;;;8.99;69.19;98821.68;272314;1272;22241;-83
2023/10/18 16:06:00;;;;;;;17.20;7.30;;;;;;;8.84;69.55;98821.46;273019;1272;22212;-83
2023/10/18 16:12:15;;;;;;;22.40;8.10;;;;;;;8.56;69.92;98820.48;272466;1272;22203;-83
2023/10/18 16:18:17;;;;;;;26.90;10.40;;;;;;;8.32;70.85;98820.08;272114;1272;22505;-85
2023/10/18 16:24:20;;;;;;;24.50;11.70;;;;;;;8.02;71.29;98816.01;272295;1273;22353;-83
2023/10/18 16:30:59;;;;;;;25.20;10.60;;;;;;;7.77;72.58;98813.05;271185;1272;22366;-84
2023/10/18 16:37:12;;;;;;;26.90;11.90;;;;;;;7.62;73.94;98807.85;272112;1273;22226;-83
2023/10/18 16:43:26;;;;;;;22.60;13.10;;;;;;;7.45;74.84;98801.98;272491;1264;23600;-84
2023/10/18 16:49:35;;;;;;;28.20;14.90;;;;;;;7.34;75.28;98797.48;272181;1272;23042;-84
2023/10/18 16:55:38;;;;;;;41.50;19.80;;;;;;;7.20;75.66;98792.36;272254;1272;23394;-82
2023/10/18 17:01:40;;;;;;;25.40;15.20;;;;;;;7.02;76.43;98791.67;272262;1272;23185;-84
2023/10/18 17:07:46;;;;;;;35.80;21.10;;;;;;;6.81;77.37;98786.05;272241;1272;22554;-83
2023/10/18 17:13:52;;;;;;;33.60;20.60;;;;;;;6.65;78.09;98781.12;269747;1272;22519;-85
2023/10/18 17:20:37;;;;;;;40.60;25.20;;;;;;;6.57;78.54;98773.77;272210;1272;22210;-82
2023/10/18 17:26:40;;;;;;;35.70;22.40;;;;;;;6.51;79.17;98764.71;272187;1274;22268;-83
2023/10/18 17:33:08;;;;;;;36.40;21.50;;;;;;;6.46;79.80;98759.00;271828;1272;22511;-84
2023/10/18 17:39:26;;;;;;;34.60;20.30;;;;;;;6.35;80.39;98761.39;273004;1274;22387;-83
2023/10/18 17:45:33;;;;;;;35.20;20.60;;;;;;;6.22;80.76;98762.48;272490;1273;22193;-82
2023/10/18 17:52:19;;;;;;;53.40;26.30;;;;;;;6.08;81.31;98762.80;272585;1270;22992;-83
2023/10/18 17:58:41;;;;;;;99.20;44.60;;;;;;;5.99;81.60;98760.56;272328;1273;22334;-84
2023/10/18 18:05:05;;;;;;;59.30;30.30;;;;;;;5.82;82.01;98754.06;272650;1272;22613;-83
2023/10/18 18:11:08;;;;;;;58.70;27.90;;;;;;;5.75;82.95;98756.73;270341;1272;22545;-83
2023/10/18 18:17:30;;;;;;;45.80;24.50;;;;;;;5.73;83.34;98756.98;271867;1272;23311;-83
2023/10/18 18:23:38;;;;;;;45.90;25.40;;;;;;;5.64;82.89;98757.99;271111;1272;24687;-82
2023/10/18 18:30:04;;;;;;;42.30;25.40;;;;;;;5.42;83.09;98754.61;271059;1269;24236;-83
2023/10/18 18:36:11;;;;;;;47.50;26.00;;;;;;;5.25;83.43;98751.80;270114;1272;24194;-83
2023/10/18 18:42:13;;;;;;;46.70;25.50;;;;;;;5.03;83.50;98756.45;271264;1272;23445;-83
2023/10/18 18:48:14;;;;;;;62.10;32.60;;;;;;;4.80;83.90;98755.40;272121;1268;22141;-83
2023/10/18 18:54:18;;;;;;;75.80;36.50;;;;;;;4.60;83.91;98749.06;272330;1272;23817;-84
2023/10/18 19:00:23;;;;;;;67.70;32.60;;;;;;;4.48;84.37;98743.31;272793;1274;22187;-83
2023/10/18 19:06:25;;;;;;;53.70;29.80;;;;;;;4.43;84.79;98736.91;272521;1273;22239;-83
2023/10/18 19:12:28;;;;;;;51.50;29.70;;;;;;;4.35;85.19;98735.23;271400;1272;22407;-82
2023/10/18 19:18:31;;;;;;;46.50;27.70;;;;;;;4.28;85.53;98729.02;270090;1272;22559;-82
2023/10/18 19:24:40;;;;;;;46.10;26.40;;;;;;;4.20;85.78;98721.45;270498;1273;22408;-84
2023/10/18 19:30:41;;;;;;;47.30;27.30;;;;;;;4.12;85.81;98719.36;271768;1272;22404;-83
2023/10/18 19:36:49;;;;;;;51.20;27.90;;;;;;;4.05;86.25;98717.41;272986;1275;22189;-83
2023/10/18 19:42:52;;;;;;;47.30;23.60;;;;;;;3.98;86.80;98720.85;272402;1262;23413;-85
2023/10/18 19:49:34;;;;;;;49.50;25.00;;;;;;;3.88;86.95;98717.66;272457;1273;22283;-82
2023/10/18 19:55:40;;;;;;;48.70;24.40;;;;;;;3.76;87.33;98715.92;272988;1279;22333;-83
2023/10/18 20:01:42;;;;;;;47.30;26.20;;;;;;;3.73;87.92;98710.97;270780;1272;22573;-83
2023/10/18 20:07:48;;;;;;;51.50;27.70;;;;;;;3.59;87.51;98703.20;271172;1272;22567;-83
2023/10/18 20:13:54;;;;;;;47.60;25.10;;;;;;;3.43;87.54;98699.79;272785;1277;22221;-83
2023/10/18 20:19:59;;;;;;;55.20;29.30;;;;;;;3.27;87.59;98697.41;272282;1272;22203;-83
2023/10/18 20:26:05;;;;;;;85.20;46.40;;;;;;;3.15;87.95;98687.64;271643;1273;22405;-83
2023/10/18 20:32:10;;;;;;;68.80;38.10;;;;;;;3.03;88.12;98684.21;270610;1273;22217;-83
2023/10/18 20:38:12;;;;;;;61.60;33.40;;;;;;;2.99;88.38;98678.27;272481;1273;22429;-84
2023/10/18 20:44:17;;;;;;;47.60;27.80;;;;;;;2.96;88.62;98667.42;272896;1275;23078;-83
2023/10/18 20:50:23;;;;;;;54.60;30.10;;;;;;;2.88;88.81;98660.41;272817;1270;22287;-82
2023/10/18 20:56:37;;;;;;;54.40;32.20;;;;;;;2.83;89.30;98657.15;272541;1273;22214;-82
2023/10/18 21:02:44;;;;;;;55.40;32.90;;;;;;;2.73;89.13;98655.00;272956;1273;22184;-82
2023/10/18 21:09:08;;;;;;;57.70;33.40;;;;;;;2.59;89.38;98654.73;270767;1272;22549;-82
2023/10/18 21:15:31;;;;;;;62.50;36.30;;;;;;;2.48;89.44;98648.77;270238;1273;22156;-82
2023/10/18 21:21:33;;;;;;;55.50;32.40;;;;;;;2.39;89.90;98643.34;272320;1272;22334;-85
2023/10/18 21:28:14;;;;;;;73.40;40.00;;;;;;;2.36;90.13;98640.58;272486;1273;22299;-82
2023/10/18 21:35:04;;;;;;;60.60;33.00;;;;;;;2.28;90.00;98641.42;271125;1272;22314;-82
2023/10/18 21:41:27;;;;;;;60.00;31.70;;;;;;;2.19;90.32;98638.09;272385;1273;23387;-82
2023/10/18 21:47:29;;;;;;;68.10;33.90;;;;;;;2.09;90.06;98634.16;271298;1273;22228;-82
2023/10/18 21:53:31;;;;;;;58.90;33.30;;;;;;;1.98;90.20;98624.45;272486;1273;22309;-82
2023/10/18 21:59:49;;;;;;;58.00;32.70;;;;;;;1.83;90.21;98620.40;272437;1272;23285;-82
2023/10/18 22:06:28;;;;;;;;;;;;;;;;;;;;;
2023/10/18 22:13:01;;;;;;;63.40;33.50;;;;;;;1.67;91.07;98601.73;272331;1272;22265;-81
2023/10/18 22:19:39;;;;;;;62.50;34.40;;;;;;;1.62;91.28;98597.77;271381;1272;22564;-81
2023/10/18 22:26:16;;;;;;;62.10;31.50;;;;;;;1.54;91.30;98591.84;272688;1274;22208;-81
2023/10/18 22:33:13;;;;;;;57.00;28.80;;;;;;;1.52;91.72;98582.64;272446;1272;22250;-81
2023/10/18 22:39:33;;;;;;;63.60;34.70;;;;;;;1.50;92.25;98575.27;272453;1273;23315;-83
2023/10/18 22:46:32;;;;;;;60.50;32.10;;;;;;;1.49;92.45;98571.84;272529;1273;23104;-81
2023/10/18 22:52:44;;;;;;;56.80;31.40;;;;;;;1.35;91.78;98567.89;272453;1272;23307;-81
2023/10/18 22:59:17;;;;;;;61.10;32.10;;;;;;;1.34;92.83;98558.89;272456;1272;23709;-81
2023/10/18 23:05:52;;;;;;;;;;;;;;;;;;;;;
2023/10/18 23:11:57;;;;;;;62.20;33.40;;;;;;;1.23;92.36;98538.44;272434;1272;22366;-81
2023/10/18 23:18:15;;;;;;;63.70;32.00;;;;;;;1.12;92.36;98527.52;272522;1273;22247;-80
2023/10/18 23:30:39;;;;;;;58.00;32.70;;;;;;;1.03;92.56;98509.10;269845;1267;22474;-80
2023/10/18 23:36:47;;;;;;;58.50;31.30;;;;;;;1.00;92.87;98496.59;269448;1273;23795;-80
2023/10/18 23:42:50;;;;;;;56.90;31.90;;;;;;;0.92;92.80;98493.92;270207;1273;22572;-81
2023/10/18 23:54:55;;;;;;;58.50;31.30;;;;;;;0.85;93.65;98477.48;272293;1273;22293;-81
